createdAt,value
2022-10-29T00:00:49.093Z,86.7
2022-10-29T00:01:49.271Z,86.7
2022-10-29T00:02:49.288Z,86.7
2022-10-29T00:03:49.118Z,86.7
2022-10-29T00:04:49.130Z,86.8
2022-10-29T00:05:49.132Z,86.8
2022-10-29T00:07:49.146Z,86.6
2022-10-29T00:08:49.156Z,86.5
2022-10-29T00:09:49.167Z,86.4
2022-10-29T00:10:49.187Z,86.4
2022-10-29T00:11:49.194Z,86.3
2022-10-29T00:12:49.190Z,86.4
2022-10-29T00:13:49.205Z,86.5
2022-10-29T00:14:49.208Z,86.5
2022-10-29T00:15:49.214Z,86.5
2022-10-29T00:16:49.242Z,86.6
2022-10-29T00:17:49.262Z,86.7
2022-10-29T00:18:49.266Z,86.6
2022-10-29T00:19:49.258Z,86.6
2022-10-29T00:20:49.270Z,86.7
2022-10-29T00:21:49.275Z,86.7
2022-10-29T00:22:49.284Z,86.7
2022-10-29T00:23:49.290Z,86.6
2022-10-29T00:24:49.366Z,86.8
2022-10-29T00:25:49.389Z,86.8
2022-10-29T00:26:49.404Z,86.8
2022-10-29T00:27:49.322Z,86.8
2022-10-29T00:28:49.416Z,86.8
2022-10-29T00:29:49.359Z,87.0
2022-10-29T00:30:49.366Z,87.0
2022-10-29T00:31:49.520Z,86.9
2022-10-29T00:32:49.374Z,86.9
2022-10-29T00:33:49.385Z,86.8
2022-10-29T00:34:49.404Z,86.8
2022-10-29T00:35:49.408Z,87.0
2022-10-29T00:36:49.420Z,87.0
2022-10-29T00:37:49.428Z,87.1
2022-10-29T00:38:49.443Z,87.0
2022-10-29T00:39:49.453Z,87.0
2022-10-29T00:57:50.019Z,88.1
2022-10-29T00:58:49.636Z,88.0
2022-10-29T01:00:49.618Z,88.0
2022-10-29T01:01:50.129Z,88.1
2022-10-29T01:02:49.956Z,88.1
2022-10-29T01:03:49.637Z,88.1
2022-10-29T01:04:49.655Z,88.1
2022-10-29T01:05:49.653Z,88.1
2022-10-29T01:06:49.660Z,88.3
2022-10-29T01:07:49.681Z,88.3
2022-10-29T01:08:49.683Z,88.4
2022-10-29T01:09:49.701Z,88.4
2022-10-29T01:10:49.710Z,88.7
2022-10-29T01:11:49.715Z,88.7
2022-10-29T01:12:49.730Z,88.7
2022-10-29T01:13:49.744Z,88.9
2022-10-29T01:14:49.741Z,89.0
2022-10-29T01:15:49.840Z,89.0
2022-10-29T01:16:49.760Z,89.2
2022-10-29T01:17:49.759Z,89.1
2022-10-29T01:18:50.055Z,89.1
2022-10-29T01:19:49.824Z,89.2
2022-10-29T01:20:49.791Z,89.1
2022-10-29T01:21:49.806Z,89.2
2022-10-29T01:22:49.815Z,89.2
2022-10-29T01:23:49.826Z,89.5
2022-10-29T01:24:49.833Z,89.5
2022-10-29T01:25:49.845Z,89.6
2022-10-29T01:26:49.874Z,89.5
2022-10-29T01:27:49.870Z,89.5
2022-10-29T01:28:49.877Z,89.7
2022-10-29T01:29:49.883Z,89.7
2022-10-29T01:30:49.901Z,89.7
2022-10-29T01:31:49.903Z,89.7
2022-10-29T01:32:49.911Z,89.8
2022-10-29T01:33:49.921Z,89.9
2022-10-29T01:34:49.934Z,89.9
2022-10-29T01:35:49.938Z,89.9
2022-10-29T01:36:49.945Z,89.9
2022-10-29T01:37:49.953Z,90.0
2022-10-29T01:38:49.955Z,90.1
2022-10-29T01:39:49.972Z,90.1
2022-10-29T01:40:49.989Z,90.1
2022-10-29T01:41:49.996Z,90.0
2022-10-29T01:42:50.005Z,90.0
2022-10-29T01:43:50.014Z,89.9
2022-10-29T01:44:50.026Z,89.7
2022-10-29T01:45:50.036Z,89.4
2022-10-29T01:46:50.048Z,89.3
2022-10-29T01:47:50.064Z,89.2
2022-10-29T01:48:50.059Z,89.1
2022-10-29T01:49:50.075Z,89.0
2022-10-29T01:50:50.068Z,89.0
2022-10-29T01:51:50.081Z,88.9
2022-10-29T01:52:50.097Z,88.9
2022-10-29T01:53:50.105Z,88.8
2022-10-29T01:54:50.128Z,88.8
2022-10-29T01:55:50.118Z,88.8
2022-10-29T01:56:50.126Z,88.9
2022-10-29T01:57:50.149Z,88.9
2022-10-29T01:58:50.141Z,88.9
2022-10-29T01:59:56.486Z,88.9
2022-10-29T02:00:50.315Z,89.0
2022-10-29T02:01:50.446Z,89.0
2022-10-29T02:02:50.166Z,89.0
2022-10-29T02:03:50.174Z,89.0
2022-10-29T02:04:50.191Z,89.0
2022-10-29T02:05:50.192Z,88.9
2022-10-29T02:06:50.213Z,88.9
2022-10-29T02:07:50.220Z,88.9
2022-10-29T02:08:50.226Z,88.9
2022-10-29T02:09:50.229Z,88.9
2022-10-29T02:10:50.242Z,88.9
2022-10-29T02:11:50.248Z,88.9
2022-10-29T02:12:50.270Z,88.9
2022-10-29T02:13:50.276Z,88.8
2022-10-29T02:14:50.278Z,88.7
2022-10-29T02:15:50.294Z,88.6
2022-10-29T02:16:50.305Z,88.5
2022-10-29T02:17:50.310Z,88.4
2022-10-29T02:18:50.319Z,88.3
2022-10-29T02:19:50.330Z,88.2
2022-10-29T02:20:50.333Z,88.1
2022-10-29T02:21:50.343Z,88.1
2022-10-29T02:22:50.361Z,88.1
2022-10-29T02:23:50.365Z,88.1
2022-10-29T02:24:50.366Z,88.0
2022-10-29T02:25:50.743Z,88.0
2022-10-29T02:26:50.381Z,88.0
2022-10-29T02:27:50.396Z,87.9
2022-10-29T02:28:50.404Z,87.9
2022-10-29T02:29:50.433Z,87.8
2022-10-29T02:30:50.417Z,87.8
2022-10-29T02:31:50.428Z,87.8
2022-10-29T02:32:50.426Z,87.7
2022-10-29T02:33:50.445Z,87.8
2022-10-29T02:34:50.547Z,87.7
2022-10-29T02:35:50.457Z,87.7
2022-10-29T02:36:50.464Z,87.6
2022-10-29T02:37:50.470Z,87.6
2022-10-29T02:38:50.468Z,87.7
2022-10-29T02:39:50.481Z,87.4
2022-10-29T02:40:50.488Z,87.4
2022-10-29T02:41:50.496Z,87.5
2022-10-29T02:42:50.509Z,87.4
2022-10-29T02:43:50.522Z,87.4
2022-10-29T02:44:50.534Z,87.4
2022-10-29T02:45:50.532Z,87.3
2022-10-29T02:46:50.546Z,87.2
2022-10-29T02:47:50.559Z,87.1
2022-10-29T02:48:50.581Z,87.0
2022-10-29T02:49:50.567Z,86.8
2022-10-29T02:50:50.582Z,86.8
2022-10-29T02:51:50.593Z,86.8
2022-10-29T02:52:50.609Z,86.9
2022-10-29T02:53:50.622Z,87.0
2022-10-29T02:54:50.628Z,87.1
2022-10-29T02:55:50.643Z,87.1
2022-10-29T02:56:50.640Z,87.2
2022-10-29T02:57:50.673Z,87.2
2022-10-29T02:58:50.679Z,87.2
2022-10-29T02:59:50.676Z,87.2
2022-10-29T03:00:50.687Z,87.3
2022-10-29T03:01:51.266Z,87.3
2022-10-29T03:02:50.986Z,87.4
2022-10-29T03:03:50.709Z,87.5
2022-10-29T03:04:50.724Z,87.5
2022-10-29T03:05:50.741Z,87.5
2022-10-29T03:06:50.742Z,87.5
2022-10-29T03:07:50.745Z,87.4
2022-10-29T03:08:50.754Z,87.4
2022-10-29T03:09:50.775Z,87.3
2022-10-29T03:10:50.777Z,87.3
2022-10-29T03:11:50.785Z,87.2
2022-10-29T03:12:50.800Z,87.2
2022-10-29T03:13:50.802Z,87.0
2022-10-29T03:14:50.818Z,87.0
2022-10-29T03:15:50.821Z,86.7
2022-10-29T03:16:50.868Z,86.9
2022-10-29T03:17:50.845Z,86.9
2022-10-29T03:18:50.868Z,86.9
2022-10-29T03:19:50.868Z,87.0
2022-10-29T03:20:50.883Z,87.0
2022-10-29T03:21:50.879Z,87.1
2022-10-29T03:22:50.892Z,87.1
2022-10-29T03:23:50.901Z,87.1
2022-10-29T03:24:50.909Z,87.2
2022-10-29T03:25:56.513Z,87.2
2022-10-29T03:26:50.933Z,87.2
2022-10-29T03:27:50.945Z,87.2
2022-10-29T03:28:50.973Z,87.1
2022-10-29T03:29:50.962Z,87.2
2022-10-29T03:30:50.968Z,87.2
2022-10-29T03:31:50.980Z,87.2
2022-10-29T03:32:50.993Z,87.3
2022-10-29T03:33:51.003Z,87.3
2022-10-29T03:35:00.111Z,87.4
2022-10-29T03:35:51.222Z,87.4
2022-10-29T03:36:51.053Z,87.5
2022-10-29T03:37:51.050Z,87.5
2022-10-29T03:38:51.052Z,87.5
2022-10-29T03:39:51.063Z,87.6
2022-10-29T03:40:51.075Z,87.6
2022-10-29T03:41:51.082Z,87.7
2022-10-29T03:42:51.112Z,87.8
2022-10-29T03:43:51.327Z,87.9
2022-10-29T03:44:51.111Z,88.0
2022-10-29T03:45:51.126Z,88.0
2022-10-29T03:46:51.133Z,87.9
2022-10-29T03:47:51.137Z,87.9
2022-10-29T03:48:51.142Z,88.1
2022-10-29T03:49:51.166Z,88.2
2022-10-29T03:50:51.166Z,88.3
2022-10-29T03:51:51.174Z,88.3
2022-10-29T03:52:51.188Z,88.3
2022-10-29T03:53:51.191Z,88.7
2022-10-29T03:54:51.205Z,89.0
2022-10-29T03:55:51.219Z,89.3
2022-10-29T03:56:51.223Z,89.5
2022-10-29T03:57:51.234Z,89.6
2022-10-29T03:58:51.251Z,89.5
2022-10-29T03:59:53.023Z,89.3
2022-10-29T04:00:51.279Z,89.2
2022-10-29T04:01:51.681Z,89.3
2022-10-29T04:02:51.526Z,89.3
2022-10-29T04:03:51.293Z,89.4
2022-10-29T04:04:51.302Z,89.4
2022-10-29T04:05:51.318Z,89.3
2022-10-29T04:06:51.319Z,89.3
2022-10-29T04:07:51.331Z,89.2
2022-10-29T04:08:51.335Z,89.3
2022-10-29T04:09:51.340Z,89.2
2022-10-29T04:10:51.347Z,89.3
2022-10-29T04:11:51.349Z,89.3
2022-10-29T04:12:51.376Z,89.5
2022-10-29T04:13:51.382Z,89.6
2022-10-29T04:15:51.401Z,89.6
2022-10-29T04:16:51.407Z,89.6
2022-10-29T04:17:51.431Z,89.7
2022-10-29T04:18:51.452Z,89.8
2022-10-29T04:19:51.457Z,89.9
2022-10-29T04:23:54.530Z,89.9
2022-10-29T04:28:42.270Z,89.1
2022-10-29T04:28:51.549Z,89.0
2022-10-29T04:29:51.547Z,88.8
2022-10-29T04:30:51.560Z,88.7
2022-10-29T04:31:51.579Z,88.6
2022-10-29T04:32:51.575Z,88.5
2022-10-29T04:33:51.593Z,88.4
2022-10-29T04:34:51.605Z,88.3
2022-10-29T04:35:51.612Z,88.2
2022-10-29T04:36:51.620Z,88.2
2022-10-29T04:37:51.638Z,88.2
2022-10-29T04:38:51.652Z,88.2
2022-10-29T04:39:51.644Z,88.2
2022-10-29T04:40:51.668Z,88.1
2022-10-29T04:41:51.682Z,88.0
2022-10-29T04:42:51.680Z,88.0
2022-10-29T04:43:51.690Z,87.9
2022-10-29T04:44:51.697Z,87.9
2022-10-29T04:45:51.720Z,87.8
2022-10-29T04:46:51.727Z,87.8
2022-10-29T04:47:51.730Z,87.7
2022-10-29T04:48:52.062Z,87.5
2022-10-29T04:49:51.747Z,87.6
2022-10-29T04:50:51.750Z,87.7
2022-10-29T04:51:51.756Z,87.7
2022-10-29T04:52:51.771Z,87.7
2022-10-29T04:53:51.795Z,87.6
2022-10-29T04:54:51.790Z,87.6
2022-10-29T04:55:51.805Z,87.6
2022-10-29T04:56:51.842Z,87.5
2022-10-29T04:57:51.831Z,87.5
2022-10-29T04:58:51.828Z,87.5
2022-10-29T04:59:51.853Z,87.4
2022-10-29T05:00:52.073Z,87.4
2022-10-29T05:01:51.856Z,87.4
2022-10-29T05:02:51.868Z,87.4
2022-10-29T05:04:00.446Z,87.4
2022-10-29T05:04:51.892Z,87.5
2022-10-29T05:05:51.886Z,87.6
2022-10-29T05:06:51.898Z,87.5
2022-10-29T05:07:51.913Z,87.4
2022-10-29T05:08:51.925Z,87.2
2022-10-29T05:09:51.922Z,87.0
2022-10-29T05:10:51.942Z,86.9
2022-10-29T05:11:51.941Z,86.8
2022-10-29T05:12:51.956Z,86.6
2022-10-29T05:13:51.971Z,86.5
2022-10-29T05:14:51.971Z,86.5
2022-10-29T05:15:53.889Z,86.7
2022-10-29T05:16:51.997Z,86.8
2022-10-29T05:17:52.048Z,86.8
2022-10-29T05:18:52.013Z,86.8
2022-10-29T05:19:52.031Z,86.9
2022-10-29T05:20:52.045Z,87.1
2022-10-29T05:21:52.054Z,87.2
2022-10-29T05:22:52.077Z,87.2
2022-10-29T05:23:52.077Z,87.3
2022-10-29T05:24:52.093Z,87.5
2022-10-29T05:25:52.889Z,87.5
2022-10-29T05:26:52.110Z,87.6
2022-10-29T05:27:52.136Z,87.8
2022-10-29T05:28:52.136Z,88.0
2022-10-29T05:29:52.146Z,88.3
2022-10-29T05:30:52.174Z,88.5
2022-10-29T05:31:52.168Z,88.7
2022-10-29T05:32:52.187Z,88.8
2022-10-29T05:33:56.296Z,88.8
2022-10-29T05:34:52.194Z,88.8
2022-10-29T05:35:52.217Z,88.8
2022-10-29T05:36:52.205Z,88.6
2022-10-29T05:37:52.230Z,88.5
2022-10-29T05:38:52.244Z,88.3
2022-10-29T05:39:52.255Z,88.3
2022-10-29T05:40:52.258Z,88.3
2022-10-29T05:41:52.275Z,88.3
2022-10-29T05:42:52.277Z,88.2
2022-10-29T05:43:52.315Z,88.1
2022-10-29T05:44:52.292Z,87.9
2022-10-29T05:45:52.305Z,87.7
2022-10-29T05:46:52.320Z,87.6
2022-10-29T05:47:52.325Z,87.5
2022-10-29T05:48:52.333Z,87.5
2022-10-29T05:49:52.355Z,87.3
2022-10-29T05:50:52.363Z,87.2
2022-10-29T05:51:52.369Z,87.2
2022-10-29T05:52:52.384Z,87.0
2022-10-29T05:53:52.385Z,86.7
2022-10-29T05:54:52.397Z,86.7
2022-10-29T05:55:52.391Z,86.5
2022-10-29T05:56:52.390Z,86.4
2022-10-29T05:57:52.404Z,86.3
2022-10-29T05:58:52.428Z,86.2
2022-10-29T05:59:52.436Z,86.1
2022-10-29T06:00:52.454Z,86.1
2022-10-29T06:01:53.033Z,86.0
2022-10-29T06:02:53.272Z,86.0
2022-10-29T06:04:52.525Z,86.2
2022-10-29T06:05:52.502Z,86.5
2022-10-29T06:06:52.829Z,86.6
2022-10-29T06:07:52.518Z,86.7
2022-10-29T06:08:52.525Z,86.8
2022-10-29T06:09:52.522Z,87.0
2022-10-29T06:10:52.541Z,87.2
2022-10-29T06:11:52.542Z,87.1
2022-10-29T06:12:52.562Z,87.1
2022-10-29T06:13:52.573Z,87.1
2022-10-29T06:14:52.583Z,87.1
2022-10-29T06:15:52.596Z,87.0
2022-10-29T06:16:52.613Z,86.8
2022-10-29T06:17:53.867Z,86.7
2022-10-29T06:18:52.617Z,86.7
2022-10-29T06:19:52.623Z,86.7
2022-10-29T06:20:52.631Z,86.5
2022-10-29T06:22:00.697Z,86.6
2022-10-29T06:22:53.129Z,86.7
2022-10-29T06:23:52.649Z,86.9
2022-10-29T06:24:52.667Z,87.1
2022-10-29T06:25:52.673Z,87.3
2022-10-29T06:26:52.676Z,87.2
2022-10-29T06:27:52.691Z,87.0
2022-10-29T06:28:52.687Z,86.9
2022-10-29T06:29:52.700Z,86.9
2022-10-29T06:30:52.707Z,86.9
2022-10-29T06:31:52.721Z,87.0
2022-10-29T06:32:53.226Z,87.1
2022-10-29T06:33:52.752Z,87.2
2022-10-29T06:34:52.767Z,87.4
2022-10-29T06:35:52.773Z,87.5
2022-10-29T06:36:52.776Z,87.5
2022-10-29T06:37:53.179Z,87.3
2022-10-29T06:38:52.794Z,87.2
2022-10-29T06:39:52.807Z,87.3
2022-10-29T06:40:52.815Z,87.4
2022-10-29T06:41:52.829Z,87.2
2022-10-29T06:42:52.850Z,87.2
2022-10-29T06:43:52.855Z,87.4
2022-10-29T06:44:52.859Z,87.5
2022-10-29T06:45:52.858Z,87.7
2022-10-29T06:46:52.899Z,87.7
2022-10-29T06:47:53.716Z,87.7
2022-10-29T06:48:52.916Z,87.8
2022-10-29T06:49:52.913Z,87.9
2022-10-29T06:50:52.909Z,88.0
2022-10-29T06:51:52.924Z,88.1
2022-10-29T06:52:53.558Z,88.3
2022-10-29T06:53:52.947Z,88.4
2022-10-29T06:54:52.962Z,88.5
2022-10-29T06:55:52.979Z,88.6
2022-10-29T06:56:52.978Z,88.5
2022-10-29T06:57:52.996Z,88.4
2022-10-29T06:58:53.003Z,88.3
2022-10-29T06:59:53.018Z,88.3
2022-10-29T07:00:53.323Z,88.6
2022-10-29T07:01:53.289Z,88.5
2022-10-29T07:02:54.231Z,88.5
2022-10-29T07:03:53.066Z,88.6
2022-10-29T07:04:53.072Z,88.7
2022-10-29T07:05:53.074Z,88.9
2022-10-29T07:06:53.083Z,89.0
2022-10-29T07:07:53.485Z,89.0
2022-10-29T07:08:53.097Z,88.9
2022-10-29T07:09:53.113Z,88.9
2022-10-29T07:10:53.116Z,88.8
2022-10-29T07:11:53.125Z,88.7
2022-10-29T07:12:53.134Z,88.7
2022-10-29T07:13:53.144Z,88.7
2022-10-29T07:14:53.153Z,88.4
2022-10-29T07:15:53.160Z,88.3
2022-10-29T07:16:53.214Z,88.4
2022-10-29T07:17:54.498Z,88.4
2022-10-29T07:18:53.180Z,88.2
2022-10-29T07:19:53.208Z,88.3
2022-10-29T07:20:53.213Z,88.2
2022-10-29T07:21:53.223Z,88.0
2022-10-29T07:22:53.229Z,87.7
2022-10-29T07:23:53.241Z,87.0
2022-10-29T07:25:01.217Z,87.0
2022-10-29T07:25:53.405Z,86.9
2022-10-29T07:26:53.272Z,86.2
2022-10-29T07:27:54.105Z,85.9
2022-10-29T07:28:53.295Z,85.8
2022-10-29T07:29:53.306Z,85.7
2022-10-29T07:30:53.312Z,85.6
2022-10-29T07:31:53.332Z,85.3
2022-10-29T07:32:53.345Z,85.2
2022-10-29T07:33:53.347Z,85.2
2022-10-29T07:34:53.358Z,85.2
2022-10-29T07:35:53.368Z,85.0
2022-10-29T07:36:53.383Z,84.9
2022-10-29T07:37:54.394Z,84.7
2022-10-29T07:38:53.396Z,84.3
2022-10-29T07:39:53.396Z,84.2
2022-10-29T07:40:53.421Z,84.1
2022-10-29T07:41:59.595Z,83.7
2022-10-29T07:42:54.354Z,83.6
2022-10-29T07:43:53.451Z,83.6
2022-10-29T07:44:53.484Z,83.3
2022-10-29T07:45:53.482Z,83.3
2022-10-29T07:46:53.482Z,83.1
2022-10-29T07:48:01.422Z,82.6
2022-10-29T07:48:53.506Z,82.4
2022-10-29T07:49:53.513Z,82.7
2022-10-29T07:50:53.533Z,82.6
2022-10-29T07:51:53.532Z,82.5
2022-10-29T07:52:54.490Z,82.3
2022-10-29T07:53:53.562Z,82.4
2022-10-29T07:54:53.561Z,82.1
2022-10-29T07:55:53.578Z,81.9
2022-10-29T07:56:53.578Z,81.7
2022-10-29T07:57:54.581Z,81.5
2022-10-29T07:58:53.595Z,81.1
2022-10-29T07:59:53.611Z,81.1
2022-10-29T08:00:54.007Z,80.8
2022-10-29T08:01:53.944Z,80.5
2022-10-29T08:02:53.644Z,80.6
2022-10-29T08:03:53.655Z,80.4
2022-10-29T08:04:53.669Z,80.4
2022-10-29T08:05:56.964Z,80.5
2022-10-29T08:06:53.686Z,80.4
2022-10-29T08:07:55.085Z,79.9
2022-10-29T08:08:53.712Z,80.2
2022-10-29T08:09:53.720Z,80.1
2022-10-29T08:10:53.744Z,79.9
2022-10-29T08:11:53.743Z,79.7
2022-10-29T08:12:54.695Z,79.7
2022-10-29T08:13:53.777Z,79.6
2022-10-29T08:14:53.779Z,79.4
2022-10-29T08:15:53.790Z,79.2
2022-10-29T08:16:53.794Z,79.0
2022-10-29T08:17:53.802Z,78.7
2022-10-29T08:18:53.810Z,78.6
2022-10-29T08:19:53.823Z,78.8
2022-10-29T08:20:53.832Z,78.9
2022-10-29T08:21:53.833Z,78.5
2022-10-29T08:22:55.562Z,78.2
2022-10-29T08:23:53.862Z,78.7
2022-10-29T08:24:53.872Z,79.1
2022-10-29T08:25:53.875Z,79.4
2022-10-29T08:26:53.907Z,79.3
2022-10-29T08:28:53.916Z,79.5
2022-10-29T08:29:53.922Z,79.6
2022-10-29T08:30:53.932Z,79.6
2022-10-29T08:31:53.941Z,79.5
2022-10-29T08:32:55.390Z,79.5
2022-10-29T08:33:53.964Z,79.5
2022-10-29T08:34:54.000Z,79.5
2022-10-29T08:35:53.990Z,79.6
2022-10-29T08:36:53.996Z,79.7
2022-10-29T08:37:54.005Z,79.6
2022-10-29T08:38:54.015Z,79.4
2022-10-29T08:39:54.016Z,79.6
2022-10-29T08:40:54.038Z,79.5
2022-10-29T08:41:54.042Z,79.3
2022-10-29T08:42:55.279Z,79.4
2022-10-29T08:43:54.159Z,79.5
2022-10-29T08:44:54.083Z,79.1
2022-10-29T08:45:54.112Z,79.1
2022-10-29T08:46:54.111Z,79.1
2022-10-29T08:47:55.386Z,79.0
2022-10-29T08:48:54.130Z,79.0
2022-10-29T08:49:54.143Z,79.0
2022-10-29T08:50:54.158Z,78.9
2022-10-29T08:51:54.173Z,78.7
2022-10-29T08:53:22.677Z,78.6
2022-10-29T08:54:54.183Z,78.4
2022-10-29T08:55:54.195Z,78.3
2022-10-29T08:56:54.197Z,77.8
2022-10-29T08:57:55.313Z,77.8
2022-10-29T08:58:54.232Z,77.6
2022-10-29T08:59:54.382Z,77.4
2022-10-29T09:00:54.443Z,77.2
2022-10-29T09:01:54.706Z,77.1
2022-10-29T09:02:55.403Z,76.6
2022-10-29T09:03:54.291Z,76.9
2022-10-29T09:04:54.295Z,76.3
2022-10-29T09:05:54.291Z,76.3
2022-10-29T09:06:54.305Z,76.2
2022-10-29T09:08:02.666Z,75.9
2022-10-29T09:08:54.324Z,75.9
2022-10-29T09:09:54.355Z,75.6
2022-10-29T09:10:54.361Z,75.3
2022-10-29T09:11:54.371Z,74.9
2022-10-29T09:12:55.669Z,74.9
2022-10-29T09:13:54.386Z,75.1
2022-10-29T09:14:54.393Z,75.0
2022-10-29T09:15:58.152Z,74.9
2022-10-29T09:16:54.417Z,74.7
2022-10-29T09:17:55.870Z,74.5
2022-10-29T09:18:54.439Z,74.0
2022-10-29T09:19:54.451Z,74.0
2022-10-29T09:20:54.448Z,73.7
2022-10-29T09:21:54.454Z,73.2
2022-10-29T09:22:54.474Z,73.1
2022-10-29T09:23:54.479Z,73.2
2022-10-29T09:24:54.503Z,72.9
2022-10-29T09:25:54.502Z,72.6
2022-10-29T09:26:54.520Z,72.1
2022-10-29T09:27:55.685Z,71.7
2022-10-29T09:28:54.536Z,71.6
2022-10-29T09:29:54.550Z,71.6
2022-10-29T09:30:54.562Z,71.0
2022-10-29T09:31:54.568Z,70.7
2022-10-29T09:32:54.600Z,70.8
2022-10-29T09:34:02.053Z,70.5
2022-10-29T09:34:54.602Z,70.2
2022-10-29T09:35:54.605Z,70.1
2022-10-29T09:36:54.628Z,69.9
2022-10-29T09:37:56.121Z,69.9
2022-10-29T09:38:54.633Z,69.7
2022-10-29T09:39:54.638Z,69.8
2022-10-29T09:40:54.640Z,69.9
2022-10-29T09:41:54.652Z,69.8
2022-10-29T09:42:54.654Z,69.9
2022-10-29T09:43:54.673Z,69.7
2022-10-29T09:44:54.688Z,69.5
2022-10-29T09:45:54.707Z,69.6
2022-10-29T09:46:54.715Z,69.3
2022-10-29T09:47:55.919Z,69.5
2022-10-29T09:48:54.944Z,69.6
2022-10-29T09:49:54.743Z,69.7
2022-10-29T09:50:54.763Z,69.7
2022-10-29T09:51:54.773Z,69.7
2022-10-29T09:52:55.828Z,69.8
2022-10-29T09:53:54.806Z,70.1
2022-10-29T09:54:54.809Z,70.1
2022-10-29T09:55:54.860Z,70.4
2022-10-29T09:56:56.418Z,70.4
2022-10-29T09:57:54.838Z,70.5
2022-10-29T09:58:54.847Z,70.5
2022-10-29T09:59:54.871Z,70.7
2022-10-29T10:00:54.874Z,70.5
2022-10-29T10:01:55.135Z,70.7
2022-10-29T10:02:56.910Z,70.6
2022-10-29T10:03:55.134Z,70.7
2022-10-29T10:04:54.918Z,70.7
2022-10-29T10:05:54.924Z,70.6
2022-10-29T10:06:54.939Z,70.6
2022-10-29T10:07:55.912Z,70.6
2022-10-29T10:08:54.973Z,70.6
2022-10-29T10:09:54.976Z,70.8
2022-10-29T10:10:55.002Z,70.9
2022-10-29T10:11:55.002Z,70.8
2022-10-29T10:12:55.015Z,70.9
2022-10-29T10:13:55.021Z,71.0
2022-10-29T10:14:55.025Z,71.0
2022-10-29T10:15:55.039Z,71.1
2022-10-29T10:16:55.056Z,71.0
2022-10-29T10:17:56.811Z,71.1
2022-10-29T10:18:55.089Z,71.2
2022-10-29T10:19:55.076Z,71.0
2022-10-29T10:20:55.095Z,71.2
2022-10-29T10:21:55.119Z,71.2
2022-10-29T10:22:56.429Z,71.4
2022-10-29T10:23:55.139Z,71.6
2022-10-29T10:24:55.305Z,71.8
2022-10-29T10:26:05.409Z,71.9
2022-10-29T10:26:55.178Z,72.1
2022-10-29T10:27:56.027Z,72.0
2022-10-29T10:28:55.199Z,72.1
2022-10-29T10:29:55.221Z,72.2
2022-10-29T10:30:55.220Z,72.3
2022-10-29T10:31:55.275Z,72.5
2022-10-29T10:32:56.041Z,72.7
2022-10-29T10:33:55.291Z,72.9
2022-10-29T10:34:55.273Z,73.0
2022-10-29T10:35:55.291Z,73.1
2022-10-29T10:36:55.459Z,73.3
2022-10-29T10:37:56.739Z,73.3
2022-10-29T10:38:55.649Z,73.3
2022-10-29T10:39:55.358Z,73.4
2022-10-29T10:40:55.329Z,73.6
2022-10-29T10:41:55.350Z,73.7
2022-10-29T10:42:55.361Z,73.7
2022-10-29T10:43:55.374Z,73.8
2022-10-29T10:44:55.379Z,74.0
2022-10-29T10:45:55.405Z,74.1
2022-10-29T10:46:55.423Z,74.1
2022-10-29T10:47:56.605Z,73.9
2022-10-29T10:48:55.454Z,73.7
2022-10-29T10:49:55.469Z,73.6
2022-10-29T10:50:55.478Z,73.5
2022-10-29T10:51:55.504Z,73.2
2022-10-29T10:52:56.606Z,73.3
2022-10-29T10:53:55.736Z,73.3
2022-10-29T10:54:55.533Z,73.4
2022-10-29T10:55:55.558Z,73.5
2022-10-29T10:56:55.562Z,73.5
2022-10-29T10:57:55.580Z,73.4
2022-10-29T10:58:55.595Z,73.1
2022-10-29T10:59:55.605Z,72.9
2022-10-29T11:00:55.897Z,73.0
2022-10-29T11:01:56.079Z,72.8
2022-10-29T11:02:56.740Z,72.3
2022-10-29T11:03:55.667Z,72.1
2022-10-29T11:04:55.668Z,71.8
2022-10-29T11:05:55.680Z,71.8
2022-10-29T11:06:55.721Z,71.7
2022-10-29T11:07:57.134Z,71.7
2022-10-29T11:08:55.726Z,71.5
2022-10-29T11:09:55.731Z,71.4
2022-10-29T11:10:55.749Z,71.6
2022-10-29T11:11:59.523Z,71.2
2022-10-29T11:12:55.770Z,71.2
2022-10-29T11:13:55.777Z,70.8
2022-10-29T11:14:55.793Z,70.8
2022-10-29T11:15:55.813Z,70.6
2022-10-29T11:16:55.817Z,70.4
2022-10-29T11:17:57.315Z,70.2
2022-10-29T11:18:55.829Z,69.9
2022-10-29T11:19:55.852Z,69.9
2022-10-29T11:20:55.862Z,69.8
2022-10-29T11:21:55.883Z,69.9
2022-10-29T11:22:56.785Z,69.9
2022-10-29T11:23:55.911Z,69.8
2022-10-29T11:24:55.924Z,69.6
2022-10-29T11:25:55.932Z,69.2
2022-10-29T11:26:55.940Z,69.4
2022-10-29T11:27:55.949Z,69.5
2022-10-29T11:28:55.952Z,69.6
2022-10-29T11:29:55.961Z,69.3
2022-10-29T11:30:56.007Z,69.4
2022-10-29T11:31:56.002Z,69.3
2022-10-29T11:32:57.257Z,69.4
2022-10-29T11:33:56.015Z,69.4
2022-10-29T11:34:56.026Z,69.5
2022-10-29T11:36:02.106Z,69.6
2022-10-29T11:36:56.064Z,69.7
2022-10-29T11:37:57.309Z,69.7
2022-10-29T11:38:56.089Z,69.4
2022-10-29T11:39:56.101Z,69.8
2022-10-29T11:40:56.123Z,69.7
2022-10-29T11:41:56.119Z,69.7
2022-10-29T11:42:56.132Z,69.8
2022-10-29T11:43:56.145Z,69.8
2022-10-29T11:44:56.151Z,69.8
2022-10-29T11:45:56.155Z,70.0
2022-10-29T11:46:56.190Z,70.0
2022-10-29T11:47:57.233Z,70.1
2022-10-29T11:48:56.217Z,70.3
2022-10-29T11:49:56.230Z,70.2
2022-10-29T11:50:56.231Z,70.2
2022-10-29T11:51:56.245Z,70.2
2022-10-29T11:52:57.111Z,70.4
2022-10-29T11:53:56.284Z,70.3
2022-10-29T11:54:56.275Z,70.2
2022-10-29T11:55:56.291Z,70.2
2022-10-29T11:56:56.310Z,70.2
2022-10-29T11:57:56.324Z,70.1
2022-10-29T11:58:56.489Z,70.1
2022-10-29T11:59:56.329Z,70.3
2022-10-29T12:00:56.348Z,70.4
2022-10-29T12:01:56.621Z,70.4
2022-10-29T12:02:57.642Z,70.4
2022-10-29T12:03:56.595Z,70.2
2022-10-29T12:04:56.391Z,70.4
2022-10-29T12:05:56.466Z,70.3
2022-10-29T12:06:56.427Z,70.4
2022-10-29T12:07:57.635Z,70.4
2022-10-29T12:08:56.447Z,70.3
2022-10-29T12:09:56.486Z,70.1
2022-10-29T12:10:56.656Z,70.2
2022-10-29T12:11:56.469Z,70.0
2022-10-29T12:12:56.480Z,69.8
2022-10-29T12:13:56.488Z,69.8
2022-10-29T12:14:56.499Z,69.6
2022-10-29T12:15:56.533Z,69.7
2022-10-29T12:16:56.544Z,69.8
2022-10-29T12:17:57.725Z,69.8
2022-10-29T12:18:56.562Z,69.8
2022-10-29T12:19:56.861Z,69.9
2022-10-29T12:20:56.593Z,70.2
2022-10-29T12:21:56.602Z,70.4
2022-10-29T12:23:13.660Z,70.8
2022-10-29T12:23:56.617Z,70.8
2022-10-29T12:24:56.665Z,70.8
2022-10-29T12:25:56.642Z,70.9
2022-10-29T12:26:56.666Z,70.9
2022-10-29T12:27:56.725Z,70.9
2022-10-29T12:28:56.679Z,70.9
2022-10-29T12:29:56.791Z,70.8
2022-10-29T12:30:56.716Z,70.8
2022-10-29T12:31:56.723Z,70.7
2022-10-29T12:32:58.090Z,70.4
2022-10-29T12:33:56.750Z,70.3
2022-10-29T12:34:56.772Z,70.0
2022-10-29T12:35:56.899Z,69.9
2022-10-29T12:36:58.121Z,69.7
2022-10-29T12:37:57.999Z,69.4
2022-10-29T12:38:56.825Z,69.3
2022-10-29T12:39:56.850Z,69.3
2022-10-29T12:40:56.853Z,69.1
2022-10-29T12:41:56.874Z,69.0
2022-10-29T12:42:56.888Z,68.8
2022-10-29T12:43:56.903Z,68.6
2022-10-29T12:44:56.920Z,68.6
2022-10-29T12:46:20.954Z,68.4
2022-10-29T12:46:56.933Z,67.9
2022-10-29T12:47:58.099Z,68.3
2022-10-29T12:48:56.955Z,68.2
2022-10-29T12:49:56.969Z,68.3
2022-10-29T12:50:56.978Z,68.4
2022-10-29T12:52:58.042Z,68.4
2022-10-29T12:53:57.007Z,68.5
2022-10-29T12:54:57.018Z,68.4
2022-10-29T12:55:57.039Z,68.5
2022-10-29T12:56:57.049Z,68.5
2022-10-29T12:57:57.054Z,68.4
2022-10-29T12:58:57.228Z,68.4
2022-10-29T12:59:57.145Z,68.5
2022-10-29T13:00:57.212Z,68.7
2022-10-29T13:02:12.887Z,68.7
2022-10-29T13:02:59.180Z,68.9
2022-10-29T13:03:57.116Z,69.1
2022-10-29T13:04:57.136Z,69.2
2022-10-29T13:05:57.144Z,69.4
2022-10-29T13:06:57.174Z,69.6
2022-10-29T13:08:04.893Z,69.0
2022-10-29T13:08:57.250Z,69.0
2022-10-29T13:09:57.220Z,69.1
2022-10-29T13:10:57.245Z,69.3
2022-10-29T13:11:57.246Z,69.2
2022-10-29T13:12:57.238Z,69.2
2022-10-29T13:13:57.246Z,69.3
2022-10-29T13:14:57.247Z,69.3
2022-10-29T13:15:57.283Z,69.4
2022-10-29T13:16:57.284Z,69.4
2022-10-29T13:17:58.357Z,69.3
2022-10-29T13:18:57.292Z,69.1
2022-10-29T13:19:57.300Z,69.1
2022-10-29T13:20:57.296Z,69.2
2022-10-29T13:21:57.321Z,69.2
2022-10-29T13:22:58.035Z,69.3
2022-10-29T13:23:57.343Z,69.4
2022-10-29T13:24:57.347Z,69.5
2022-10-29T13:25:57.365Z,69.5
2022-10-29T13:26:57.371Z,69.5
2022-10-29T13:27:57.383Z,69.5
2022-10-29T13:28:57.408Z,69.5
2022-10-29T13:29:57.421Z,69.5
2022-10-29T13:30:57.427Z,69.5
2022-10-29T13:32:05.124Z,69.5
2022-10-29T13:32:59.052Z,69.6
2022-10-29T13:33:57.485Z,69.6
2022-10-29T13:34:57.519Z,69.7
2022-10-29T13:35:57.554Z,69.7
2022-10-29T13:36:57.521Z,69.6
2022-10-29T13:37:57.533Z,69.7
2022-10-29T13:39:08.058Z,69.8
2022-10-29T13:39:57.551Z,69.8
2022-10-29T13:40:57.551Z,69.7
2022-10-29T13:41:57.572Z,69.9
2022-10-29T13:42:58.882Z,70.0
2022-10-29T13:43:57.583Z,70.0
2022-10-29T13:44:57.614Z,70.2
2022-10-29T13:45:57.601Z,70.4
2022-10-29T13:46:57.609Z,70.4
2022-10-29T13:47:57.630Z,70.5
2022-10-29T13:48:57.645Z,70.6